Time;durP1;ratioP1;P1;durP2;ratioP2;P2;SDS_P1;SDS_P2;PMS_P1;PMS_P2;Temp;Humidity;BMP_temperature;BMP_pressure;BME280_temperature;BME280_humidity;BME280_pressure;Samples;Min_cycle;Max_cycle;Signal;HPM_P1;HPM_P2
2021/04/01 00:00:29;;;;;;;25.48;15.88;;;;;;;12.83;66.84;100621.41;5113578;28;20483;-75
2021/04/01 00:02:55;;;;;;;29.05;16.35;;;;;;;12.80;66.99;100618.91;5113340;28;20508;-73
2021/04/01 00:05:25;;;;;;;25.30;14.77;;;;;;;12.76;67.14;100614.72;5095335;28;20031;-75
2021/04/01 00:07:50;;;;;;;25.58;15.30;;;;;;;12.65;67.58;100611.88;5113247;28;20032;-73
2021/04/01 00:10:18;;;;;;;26.40;14.95;;;;;;;12.60;67.85;100610.34;5113282;28;20041;-74
2021/04/01 00:12:44;;;;;;;25.27;16.13;;;;;;;12.58;67.96;100611.41;5113242;28;20114;-75
2021/04/01 00:15:11;;;;;;;25.25;16.05;;;;;;;12.52;68.19;100601.91;5095200;28;20123;-74
2021/04/01 00:17:39;;;;;;;26.63;16.02;;;;;;;12.57;67.93;100605.19;5112923;28;20044;-74
2021/04/01 00:20:08;;;;;;;27.60;16.85;;;;;;;12.21;68.01;100538.78;5113664;28;20122;-73
2021/04/01 00:22:34;;;;;;;27.67;17.27;;;;;;;12.72;67.35;100605.16;5095186;28;20077;-72
2021/04/01 00:24:59;;;;;;;27.40;16.33;;;;;;;12.64;67.63;100602.97;5113032;28;20036;-72
2021/04/01 00:27:25;;;;;;;29.33;16.95;;;;;;;12.54;68.08;100602.69;5113033;28;20034;-71
2021/04/01 00:29:50;;;;;;;27.52;16.63;;;;;;;12.57;67.95;100598.97;5094795;28;20127;-72
2021/04/01 00:32:16;;;;;;;25.42;17.05;;;;;;;12.45;68.07;100589.91;5113096;28;20531;-72
2021/04/01 00:34:42;;;;;;;27.73;17.92;;;;;;;12.53;68.12;100586.72;5113051;28;20050;-72
2021/04/01 00:37:07;;;;;;;27.27;17.27;;;;;;;12.55;68.03;100585.69;5116583;28;20034;-71
2021/04/01 00:39:32;;;;;;;27.60;16.75;;;;;;;12.68;67.40;100591.13;5115931;28;20055;-71
2021/04/01 00:41:58;;;;;;;31.25;18.17;;;;;;;12.55;67.05;100548.25;5113446;28;20031;-71
2021/04/01 00:44:23;;;;;;;28.58;17.90;;;;;;;12.72;66.99;100578.41;5112842;28;20118;-71
2021/04/01 00:46:49;;;;;;;30.83;16.73;;;;;;;12.64;66.80;100572.66;5112646;28;20431;-71
2021/04/01 00:49:16;;;;;;;31.10;17.10;;;;;;;12.68;66.72;100579.56;5078175;28;20081;-71
2021/04/01 00:51:41;;;;;;;31.15;17.20;;;;;;;12.57;67.46;100575.75;5094596;28;20031;-71
2021/04/01 00:54:07;;;;;;;31.65;16.85;;;;;;;12.43;67.12;100542.78;5112854;28;20031;-73
2021/04/01 00:56:33;;;;;;;29.70;16.13;;;;;;;12.48;67.35;100564.78;5094799;28;20039;-72
2021/04/01 00:59:00;;;;;;;26.30;16.48;;;;;;;12.40;67.58;100564.38;5094651;28;20110;-73
2021/04/01 01:04:21;;;;;;;30.33;16.75;;;;;;;12.08;68.39;100532.50;5103126;28;20047;-74
2021/04/01 01:06:46;;;;;;;27.98;17.00;;;;;;;11.61;68.89;100474.75;5098186;28;20035;-71
2021/04/01 01:09:12;;;;;;;28.95;17.42;;;;;;;11.90;69.24;100528.28;5098676;28;20085;-71
2021/04/01 01:11:38;;;;;;;32.03;18.10;;;;;;;11.90;69.61;100555.00;5116930;28;20031;-71
2021/04/01 01:14:06;;;;;;;29.80;18.52;;;;;;;11.86;70.09;100554.31;5116329;28;20040;-72
2021/04/01 01:16:32;;;;;;;27.95;17.23;;;;;;;11.84;69.77;100550.03;5098012;28;20106;-72
2021/04/01 01:18:58;;;;;;;30.40;17.92;;;;;;;11.61;70.12;100522.00;5116538;28;20051;-75
2021/04/01 01:21:24;;;;;;;29.80;18.80;;;;;;;11.54;70.57;100523.31;5116516;28;20036;-74
2021/04/01 01:23:50;;;;;;;30.75;17.77;;;;;;;11.75;70.37;100546.06;5115998;28;20110;-73
2021/04/01 01:26:18;;;;;;;29.95;18.33;;;;;;;11.71;70.45;100539.19;5116060;28;20031;-73
2021/04/01 01:28:44;;;;;;;30.98;19.13;;;;;;;11.52;70.60;100506.50;5115846;28;20551;-74
2021/04/01 01:31:10;;;;;;;32.30;19.73;;;;;;;11.52;70.46;100507.38;5116253;28;20402;-73
2021/04/01 01:33:41;;;;;;;38.50;22.27;;;;;;;11.61;70.47;100532.69;5098091;28;20077;-73
2021/04/01 01:36:08;;;;;;;33.33;20.70;;;;;;;11.09;71.39;100477.00;5116657;28;20035;-73
2021/04/01 01:38:33;;;;;;;33.83;19.45;;;;;;;11.40;71.55;100522.31;5116261;28;20088;-73
2021/04/01 01:40:59;;;;;;;31.23;18.90;;;;;;;11.66;71.01;100530.56;5097662;28;20031;-73
2021/04/01 01:43:24;;;;;;;28.73;17.83;;;;;;;11.10;71.55;100452.06;5116263;28;20528;-71
2021/04/01 01:45:51;;;;;;;33.78;19.90;;;;;;;11.50;71.29;100521.78;5115499;28;20039;-73
2021/04/01 01:48:17;;;;;;;29.77;19.05;;;;;;;11.52;70.91;100520.72;5098362;28;20036;-72
2021/04/01 01:50:42;;;;;;;31.65;18.70;;;;;;;11.47;70.99;100515.66;5115399;28;20046;-75
2021/04/01 01:53:09;;;;;;;31.55;18.23;;;;;;;11.46;71.23;100526.44;5115662;28;20040;-73
2021/04/01 01:55:36;;;;;;;34.00;19.30;;;;;;;11.28;71.49;100490.97;5097398;28;20071;-72
2021/04/01 01:58:02;;;;;;;31.42;19.00;;;;;;;11.21;72.30;100513.69;5097604;28;20039;-72
2021/04/01 02:00:33;;;;;;;31.70;18.23;;;;;;;11.06;72.02;100496.72;5097539;28;20032;-72
2021/04/01 02:03:01;;;;;;;29.80;17.70;;;;;;;11.23;72.41;100511.78;5115195;28;20399;-72
2021/04/01 02:05:29;;;;;;;30.48;18.20;;;;;;;11.15;72.24;100509.53;5097962;28;20071;-72
2021/04/01 02:07:55;;;;;;;32.53;18.60;;;;;;;11.04;72.47;100495.09;5097323;28;20428;-72
2021/04/01 02:10:24;;;;;;;31.33;18.58;;;;;;;11.18;72.31;100511.16;5097446;28;20036;-73
2021/04/01 02:12:52;;;;;;;33.38;19.08;;;;;;;11.13;71.94;100500.78;5096638;28;20049;-72
2021/04/01 02:15:21;;;;;;;29.40;17.60;;;;;;;11.04;72.05;100481.75;5097099;28;20422;-72
2021/04/01 02:17:46;;;;;;;33.90;19.45;;;;;;;11.05;72.17;100486.16;5115050;28;20116;-70
2021/04/01 02:20:12;;;;;;;35.70;18.95;;;;;;;11.07;72.40;100505.59;5115432;28;20027;-70
2021/04/01 02:22:37;;;;;;;36.92;19.50;;;;;;;10.55;73.30;100444.56;5115462;28;20454;-72
2021/04/01 02:25:06;;;;;;;32.60;18.20;;;;;;;10.79;73.61;100491.16;5114992;28;20040;-73
2021/04/01 02:27:32;;;;;;;35.55;19.08;;;;;;;10.91;73.41;100504.78;5097159;28;20047;-74
2021/04/01 02:29:58;;;;;;;34.22;18.42;;;;;;;10.75;73.45;100478.09;5114989;28;20154;-75
2021/04/01 02:32:24;;;;;;;31.45;18.83;;;;;;;10.99;73.14;100494.50;5096741;28;20482;-75
2021/04/01 02:34:49;;;;;;;34.42;19.63;;;;;;;10.94;72.54;100477.91;5096468;28;20031;-76
2021/04/01 02:37:15;;;;;;;30.65;18.40;;;;;;;11.06;72.72;100499.41;5080238;28;20039;-75
2021/04/01 02:39:41;;;;;;;32.65;18.65;;;;;;;11.06;72.90;100495.88;5114963;28;20398;-74
2021/04/01 02:42:07;;;;;;;33.60;20.00;;;;;;;10.98;73.03;100495.44;5114711;28;20040;-75
2021/04/01 02:44:33;;;;;;;31.42;19.08;;;;;;;10.49;73.95;100424.44;5115226;28;20031;-75
2021/04/01 02:46:59;;;;;;;30.95;20.45;;;;;;;10.71;74.65;100492.56;5114534;28;20054;-75
2021/04/01 02:49:24;;;;;;;34.75;19.25;;;;;;;10.62;74.84;100498.44;5096627;28;20507;-74
2021/04/01 02:51:50;;;;;;;38.70;21.05;;;;;;;10.37;75.22;100470.47;5114559;28;20454;-73
2021/04/01 02:54:15;;;;;;;33.70;20.65;;;;;;;10.51;75.36;100499.88;5096205;28;20086;-74
2021/04/01 02:56:41;;;;;;;35.20;20.77;;;;;;;10.48;75.50;100493.84;5114696;28;20031;-75
2021/04/01 02:59:06;;;;;;;31.52;19.02;;;;;;;10.61;74.88;100494.88;5096043;28;20144;-75
2021/04/01 03:01:32;;;;;;;35.08;20.00;;;;;;;10.11;75.54;100429.22;5114407;28;20036;-74
2021/04/01 03:03:59;;;;;;;31.38;20.70;;;;;;;10.53;75.14;100483.81;5114210;28;20119;-74
2021/04/01 03:06:25;;;;;;;32.80;19.92;;;;;;;10.33;75.37;100471.59;5096534;28;20119;-74
2021/04/01 03:08:51;;;;;;;32.00;19.75;;;;;;;10.44;75.71;100492.31;5096119;28;20040;-75
2021/04/01 03:11:16;;;;;;;29.27;18.85;;;;;;;10.40;75.95;100482.75;5096652;28;20047;-75
2021/04/01 03:13:41;;;;;;;35.22;19.52;;;;;;;10.50;75.51;100487.47;5096030;28;20027;-75
2021/04/01 03:16:07;;;;;;;34.45;20.35;;;;;;;10.52;75.50;100482.94;5113740;28;20032;-75
2021/04/01 03:18:33;;;;;;;34.00;19.73;;;;;;;10.54;75.42;100481.06;5092548;28;20055;-73
2021/04/01 03:20:58;;;;;;;34.38;20.13;;;;;;;10.52;75.33;100487.44;5092223;28;20070;-74
2021/04/01 03:23:25;;;;;;;34.42;20.02;;;;;;;10.54;74.80;100461.53;5075464;28;20028;-74
2021/04/01 03:25:51;;;;;;;30.73;19.67;;;;;;;10.67;74.43;100475.88;5093111;28;20036;-75
2021/04/01 03:28:16;;;;;;;34.85;21.20;;;;;;;10.73;74.01;100486.22;5092353;28;20073;-74
2021/04/01 03:33:43;;;;;;;37.38;21.27;;;;;;;10.52;74.96;100487.44;5051025;28;20044;-74
2021/04/01 03:36:08;;;;;;;41.20;22.27;;;;;;;10.47;75.13;100490.34;5084065;28;20047;-74
2021/04/01 03:38:34;;;;;;;38.45;22.25;;;;;;;9.90;75.38;100406.41;5092420;28;20075;-74
2021/04/01 03:41:00;;;;;;;41.17;23.63;;;;;;;10.23;75.56;100459.69;5093246;28;20375;-75
2021/04/01 03:43:26;;;;;;;41.53;23.15;;;;;;;10.50;74.88;100481.28;5093611;28;20456;-74
2021/04/01 03:45:52;;;;;;;39.15;22.25;;;;;;;10.52;74.80;100484.75;5092130;28;20033;-75
2021/04/01 03:48:17;;;;;;;32.72;20.70;;;;;;;10.53;74.71;100487.34;5093415;28;20422;-74
2021/04/01 03:50:43;;;;;;;37.70;20.80;;;;;;;10.54;74.95;100485.53;5096106;28;20036;-74
2021/04/01 03:53:11;;;;;;;38.63;21.70;;;;;;;10.28;74.94;100458.50;5096280;28;20047;-73
2021/04/01 03:55:43;;;;;;;34.15;20.63;;;;;;;10.37;74.87;100466.94;5093526;28;20383;-73
2021/04/01 04:16:19;;;;;;;39.83;22.20;;;;;;;9.93;77.81;100472.84;5092830;28;20486;-73
2021/04/01 04:18:45;;;;;;;40.42;22.77;;;;;;;9.97;77.71;100469.09;5105964;28;20078;-73
2021/04/01 04:21:10;;;;;;;42.00;21.73;;;;;;;9.82;77.61;100444.13;5094999;28;20035;-74
2021/04/01 04:23:40;;;;;;;35.38;20.58;;;;;;;10.03;77.63;100468.75;5113389;28;20038;-73
2021/04/01 04:26:05;;;;;;;37.55;21.92;;;;;;;9.95;77.42;100447.00;5112917;28;20032;-73
2021/04/01 04:28:32;;;;;;;39.58;22.50;;;;;;;9.74;77.36;100409.91;5095141;28;20081;-73
2021/04/01 04:30:59;;;;;;;42.15;22.40;;;;;;;10.09;77.49;100465.75;5094793;28;20394;-72
2021/04/01 04:33:26;;;;;;;41.20;21.77;;;;;;;10.11;77.30;100463.88;5095368;28;20379;-71
2021/04/01 04:35:51;;;;;;;41.35;22.58;;;;;;;9.98;77.42;100434.38;5114948;28;20027;-72
2021/04/01 04:38:17;;;;;;;35.83;21.63;;;;;;;10.14;77.14;100461.06;5117042;28;20118;-72
2021/04/01 04:40:42;;;;;;;55.30;31.63;;;;;;;10.16;77.24;100459.16;5099255;28;20512;-72
2021/04/01 04:43:08;;;;;;;63.38;34.10;;;;;;;10.19;77.09;100455.44;5117148;28;20377;-72
2021/04/01 04:45:34;;;;;;;52.85;30.67;;;;;;;10.22;76.94;100458.81;5117255;28;20060;-72
2021/04/01 04:47:59;;;;;;;49.78;28.27;;;;;;;10.29;76.55;100454.03;5116846;28;20370;-73
2021/04/01 04:50:25;;;;;;;61.13;33.40;;;;;;;10.29;77.02;100460.22;5116940;28;20039;-73
2021/04/01 04:52:50;;;;;;;59.40;30.35;;;;;;;10.32;76.88;100452.03;5099058;28;20059;-74
2021/04/01 04:55:17;;;;;;;54.33;31.15;;;;;;;10.35;76.53;100451.03;5081580;28;20043;-74
2021/04/01 05:05:25;;;;;;;47.35;24.90;;;;;;;10.39;75.06;100385.03;5117020;28;20397;-74
2021/04/01 05:07:51;;;;;;;39.88;21.83;;;;;;;10.85;74.14;100458.81;5098739;28;20032;-74
2021/04/01 05:10:17;;;;;;;43.78;22.98;;;;;;;10.87;73.86;100456.91;5116481;28;20027;-74
2021/04/01 05:12:44;;;;;;;41.60;22.42;;;;;;;10.96;73.50;100460.00;5098577;28;20459;-74
2021/04/01 05:15:10;;;;;;;45.97;22.45;;;;;;;10.91;73.31;100435.41;5115912;28;20047;-74
2021/04/01 05:17:35;;;;;;;43.72;22.70;;;;;;;11.13;72.91;100446.53;5116203;28;20122;-73
2021/04/01 05:20:02;;;;;;;38.25;22.40;;;;;;;11.03;72.54;100437.34;5097902;28;20039;-74
2021/04/01 05:25:05;;;;;;;40.05;22.40;;;;;;;11.47;71.17;100459.56;5099367;28;20040;-78
2021/04/01 05:29:59;;;;;;;42.85;23.60;;;;;;;11.66;70.88;100455.75;5116005;28;20036;-75
2021/04/01 05:32:36;;;;;;;36.80;21.55;;;;;;;11.78;70.47;100448.81;5116290;28;20031;-74
2021/04/01 05:35:05;;;;;;;38.85;22.80;;;;;;;11.93;70.25;100442.53;5115755;28;20421;-74
2021/04/01 05:37:31;;;;;;;42.28;23.95;;;;;;;11.68;69.55;100374.56;5116242;28;20039;-75
2021/04/01 05:39:58;;;;;;;41.85;22.70;;;;;;;12.05;69.54;100420.38;5115975;28;20463;-75
2021/04/01 05:42:25;;;;;;;38.22;22.98;;;;;;;12.22;69.31;100443.38;5115765;28;20027;-75
2021/04/01 05:44:55;;;;;;;45.28;23.90;;;;;;;12.28;68.95;100443.84;5097724;28;20040;-74
2021/04/01 05:50:37;;;;;;;37.67;22.73;;;;;;;12.28;68.24;100405.53;5115609;28;20035;-75
2021/04/01 06:04:15;;;;;;;38.45;22.77;;;;;;;12.78;68.01;100436.16;5093211;28;20508;-76
2021/04/01 06:06:48;;;;;;;34.15;21.50;;;;;;;12.71;68.00;100418.78;5114048;28;20481;-76
2021/04/01 06:09:24;;;;;;;37.08;22.48;;;;;;;13.00;67.56;100438.25;5115098;28;20039;-74
2021/04/01 06:11:57;;;;;;;38.92;21.65;;;;;;;13.11;66.92;100433.88;5114877;28;20122;-73
2021/04/01 06:14:54;;;;;;;35.97;21.55;;;;;;;13.17;66.84;100433.47;5114498;28;20031;-71
2021/04/01 06:17:22;;;;;;;33.28;21.13;;;;;;;13.03;66.70;100377.31;5114611;28;20107;-82
2021/04/01 06:19:48;;;;;;;35.20;21.77;;;;;;;13.10;66.45;100367.03;5114470;28;20043;-76
2021/04/01 06:22:15;;;;;;;34.58;21.73;;;;;;;13.56;66.23;100430.88;5114248;28;20131;-75
2021/04/01 06:24:44;;;;;;;34.63;21.00;;;;;;;13.65;65.89;100427.53;5114307;28;20100;-74
2021/04/01 06:27:18;;;;;;;29.65;20.25;;;;;;;13.74;65.24;100417.03;5113888;28;20557;-73
2021/04/01 06:30:14;;;;;;;34.80;19.90;;;;;;;13.92;64.65;100430.09;5114523;28;20030;-73
2021/04/01 06:32:49;;;;;;;31.40;19.95;;;;;;;14.19;64.03;100427.28;5113457;28;20031;-78
2021/04/01 06:35:29;;;;;;;34.08;19.98;;;;;;;14.41;63.13;100422.03;5113959;28;20028;-77
2021/04/01 06:40:43;;;;;;;35.55;19.60;;;;;;;14.58;62.49;100419.00;5114087;28;20036;-77
2021/04/01 06:43:18;;;;;;;29.67;19.02;;;;;;;14.65;62.54;100432.81;5113750;28;20501;-77
2021/04/01 06:45:54;;;;;;;30.50;19.35;;;;;;;14.67;61.94;100428.22;5114146;28;20035;-79
2021/04/01 06:48:24;;;;;;;30.05;19.35;;;;;;;14.76;62.09;100427.50;5113980;28;20110;-74
2021/04/01 06:51:05;;;;;;;35.05;19.80;;;;;;;14.94;61.35;100429.78;5114463;28;20035;-77
2021/04/01 06:59:22;;;;;;;33.45;20.05;;;;;;;15.00;60.05;100376.47;5086076;28;20044;-79
2021/04/01 07:02:02;;;;;;;28.88;19.65;;;;;;;15.29;59.79;100411.84;5113835;28;20047;-77
2021/04/01 07:04:35;;;;;;;30.63;19.58;;;;;;;15.19;60.18;100408.16;5113633;28;20027;-69
2021/04/01 07:07:11;;;;;;;;;;;;;;;15.26;60.59;100420.16;5098380;28;20031;-78
2021/04/01 07:12:17;;;;;;;35.22;19.20;;;;;;;15.43;59.87;100413.44;5117383;28;20064;-72
2021/04/01 07:14:46;;;;;;;30.80;19.80;;;;;;;15.49;59.65;100404.06;5095313;28;20034;-80
2021/04/01 07:17:24;;;;;;;29.55;18.17;;;;;;;15.53;59.48;100384.84;5113757;28;20040;-78
2021/04/01 07:47:23;;;;;;;31.70;21.63;;;;;;;16.37;57.44;100374.56;5113227;28;20035;-75
2021/04/01 07:49:50;;;;;;;31.30;20.95;;;;;;;16.40;57.31;100356.31;5113263;28;20148;-74
2021/04/01 07:52:24;;;;;;;31.55;21.02;;;;;;;16.55;57.03;100376.59;5094652;28;20035;-74
2021/04/01 07:59:58;;;;;;;32.42;20.25;;;;;;;16.45;56.90;100359.50;5112925;28;20071;-72
2021/04/01 08:02:50;;;;;;;30.50;19.75;;;;;;;16.57;56.93;100366.53;5075222;28;20039;-77
2021/04/01 08:05:13;;;;;;;32.20;20.92;;;;;;;16.71;56.20;100362.75;5091550;28;20070;-76
2021/04/01 08:07:47;;;;;;;29.85;21.38;;;;;;;16.79;56.50;100354.88;5074350;28;20036;-74
2021/04/01 08:10:16;;;;;;;38.40;22.00;;;;;;;16.79;56.35;100348.63;5092180;28;20431;-82
2021/04/01 08:12:48;;;;;;;35.20;21.05;;;;;;;16.81;56.21;100346.66;5092347;28;20028;-81
2021/04/01 08:15:17;;;;;;;31.48;20.88;;;;;;;17.00;56.05;100357.59;5091293;28;20040;-76
2021/04/01 08:17:49;;;;;;;34.55;21.33;;;;;;;17.16;55.76;100363.34;5092114;28;20113;-72
2021/04/01 08:20:19;;;;;;;29.98;20.80;;;;;;;17.25;54.99;100360.88;5074966;28;20111;-72
2021/04/01 08:22:54;;;;;;;33.28;20.00;;;;;;;17.38;54.74;100350.75;5092282;28;20386;-71
2021/04/01 08:25:23;;;;;;;30.23;19.15;;;;;;;17.38;54.46;100330.03;5091724;28;20028;-76
2021/04/01 08:35:34;;;;;;;28.30;18.08;;;;;;;17.88;53.34;100313.09;5112153;28;20130;-72
2021/04/01 08:40:33;;;;;;;29.58;17.40;;;;;;;18.24;53.06;100331.34;5095170;28;20031;-69
2021/04/01 08:42:59;;;;;;;31.88;17.20;;;;;;;18.37;52.55;100331.09;5094189;28;20501;-72
2021/04/01 08:45:36;;;;;;;25.13;15.05;;;;;;;18.05;52.85;100265.66;5111833;28;20038;-72
2021/04/01 08:48:23;;;;;;;24.13;16.23;;;;;;;18.49;52.75;100327.25;5112369;28;20035;-70
2021/04/01 08:51:03;;;;;;;26.15;16.73;;;;;;;18.34;52.01;100284.63;5094218;28;20031;-77
2021/04/01 08:54:09;;;;;;;30.23;17.63;;;;;;;18.68;52.02;100310.22;5112091;28;20059;-73
2021/04/01 08:57:14;;;;;;;28.95;16.73;;;;;;;18.89;51.56;100312.75;5112178;28;20032;-79
2021/04/01 08:59:57;;;;;;;26.30;15.00;;;;;;;19.00;50.98;100279.31;5093551;28;20055;-73
2021/04/01 09:02:23;;;;;;;;;;;;;;;19.22;50.05;100297.91;5111991;28;20066;-75
2021/04/01 09:04:52;;;;;;;25.17;12.73;;;;;;;19.26;49.66;100283.09;5093690;28;19977;-73
2021/04/01 09:07:22;;;;;;;18.15;10.90;;;;;;;19.32;49.50;100287.94;5093853;28;20027;-74
2021/04/01 09:09:51;;;;;;;18.50;10.40;;;;;;;19.29;49.15;100261.16;5093968;28;20137;-77
2021/04/01 09:15:00;;;;;;;18.13;9.00;;;;;;;19.48;48.44;100271.03;5111888;28;20139;-75
2021/04/01 09:17:31;;;;;;;14.77;8.57;;;;;;;19.64;47.74;100274.00;5111892;28;20404;-77
2021/04/01 09:19:57;;;;;;;14.32;7.22;;;;;;;19.73;47.14;100275.81;5111949;28;20440;-72
2021/04/01 09:22:29;;;;;;;14.63;7.20;;;;;;;19.76;46.80;100274.66;5077737;28;20035;-75
2021/04/01 09:25:04;;;;;;;19.15;8.15;;;;;;;19.79;46.97;100270.81;5115563;28;20028;-74
2021/04/01 09:27:30;;;;;;;18.48;8.57;;;;;;;19.82;47.32;100265.94;5115156;28;20032;-71
2021/04/01 09:30:10;;;;;;;14.10;8.05;;;;;;;19.56;47.21;100206.25;5097400;28;20055;-73
2021/04/01 09:32:39;;;;;;;13.18;7.78;;;;;;;19.92;46.61;100236.94;5115062;28;20035;-74
2021/04/01 09:35:07;;;;;;;11.30;7.07;;;;;;;19.99;45.73;100232.63;5115346;28;20027;-74
2021/04/01 09:37:33;;;;;;;10.93;5.82;;;;;;;20.21;45.20;100235.91;5115119;28;20027;-74
2021/04/01 09:40:12;;;;;;;11.73;6.88;;;;;;;20.41;45.08;100226.59;5115242;28;20046;-74
2021/04/01 09:42:42;;;;;;;13.48;6.00;;;;;;;20.64;44.40;100247.81;5096786;28;20035;-73
2021/04/01 09:45:10;;;;;;;10.95;7.30;;;;;;;20.67;44.81;100236.69;5096668;28;20051;-69
2021/04/01 09:47:39;;;;;;;18.13;7.72;;;;;;;20.54;45.04;100216.22;5115118;28;20115;-71
2021/04/01 09:50:11;;;;;;;11.10;6.90;;;;;;;20.53;45.07;100219.94;5115017;28;20492;-70
2021/04/01 09:52:40;;;;;;;17.27;7.53;;;;;;;20.81;43.88;100227.97;5115261;28;20039;-71
2021/04/01 09:55:12;;;;;;;10.02;5.65;;;;;;;20.73;44.34;100215.19;5096894;28;20466;-70
2021/04/01 09:57:45;;;;;;;11.77;6.40;;;;;;;20.87;44.36;100232.75;5096911;28;20147;-72
2021/04/01 10:02:58;;;;;;;13.60;6.47;;;;;;;21.04;43.75;100218.31;5114609;28;20040;-72
2021/04/01 10:05:25;;;;;;;9.95;5.30;;;;;;;20.93;43.58;100201.44;5114640;28;20049;-72
2021/04/01 10:07:58;;;;;;;9.20;5.07;;;;;;;21.03;43.68;100219.28;5096583;28;20024;-70
2021/04/01 10:10:42;;;;;;;9.07;5.10;;;;;;;20.97;43.50;100192.81;5115149;28;20032;-70
2021/04/01 10:13:33;;;;;;;8.15;5.30;;;;;;;21.19;43.55;100204.13;5114990;28;20023;-71
2021/04/01 10:15:59;;;;;;;10.07;4.78;;;;;;;21.23;43.30;100205.50;5109815;28;20408;-70
2021/04/01 10:18:34;;;;;;;9.73;5.20;;;;;;;21.21;42.86;100202.94;5095960;28;20055;-75
2021/04/01 10:21:05;;;;;;;10.30;4.80;;;;;;;21.29;42.78;100203.03;5096585;28;20110;-70
2021/04/01 10:23:45;;;;;;;10.30;5.10;;;;;;;21.18;42.42;100186.16;5113878;28;20385;-70
2021/04/01 10:26:12;;;;;;;9.07;5.15;;;;;;;21.26;42.46;100183.50;5114867;28;20221;-73
2021/04/01 10:28:56;;;;;;;9.57;4.78;;;;;;;21.24;42.46;100174.66;5119279;28;20371;-79
2021/04/01 10:31:22;;;;;;;11.95;4.80;;;;;;;21.37;42.97;100178.66;5114677;28;20035;-71
2021/04/01 10:33:53;;;;;;;9.00;4.70;;;;;;;21.55;42.04;100183.13;5117123;28;20099;-77
2021/04/01 10:36:28;;;;;;;10.25;4.82;;;;;;;21.22;42.08;100131.41;5121838;28;20035;-76
2021/04/01 10:39:00;;;;;;;11.00;5.03;;;;;;;21.61;42.02;100177.88;5115108;28;20466;-77
2021/04/01 10:41:26;;;;;;;8.88;4.60;;;;;;;21.69;41.41;100172.47;5114803;28;20035;-76
2021/04/01 10:43:58;;;;;;;9.07;4.97;;;;;;;21.61;41.80;100149.88;5113807;28;20039;-74
2021/04/01 10:46:25;;;;;;;10.35;4.82;;;;;;;21.66;41.40;100159.22;5114576;28;20054;-76
2021/04/01 10:48:55;;;;;;;8.43;4.53;;;;;;;21.76;41.17;100158.25;5113918;28;20440;-74
2021/04/01 10:51:22;;;;;;;9.77;4.88;;;;;;;21.52;41.48;100113.75;5113080;28;20019;-73
2021/04/01 10:53:48;;;;;;;14.32;5.38;;;;;;;21.85;40.85;100128.22;5112626;28;20039;-74
2021/04/01 10:56:15;;;;;;;9.25;4.80;;;;;;;21.87;41.29;100117.19;5112781;28;20527;-73
2021/04/01 10:59:07;;;;;;;10.77;5.38;;;;;;;22.11;40.97;100136.25;5113866;28;20544;-74
2021/04/01 11:01:42;;;;;;;12.93;5.00;;;;;;;22.05;40.85;100120.59;5110755;28;20039;-74
2021/04/01 11:04:10;;;;;;;10.57;5.03;;;;;;;22.17;40.65;100121.97;5113877;28;20092;-73
2021/04/01 11:06:37;;;;;;;8.05;4.90;;;;;;;22.23;40.77;100107.72;5113924;28;20031;-76
2021/04/01 11:09:03;;;;;;;9.65;5.07;;;;;;;22.34;40.39;100124.69;5112846;28;20043;-77
2021/04/01 11:12:12;;;;;;;10.40;5.10;;;;;;;22.23;40.84;100115.03;5113776;28;20110;-76
2021/04/01 11:14:23;;;;;;;9.32;5.53;;;;;;;22.31;40.16;100106.03;5113153;28;20474;-73
2021/04/01 11:16:52;;;;;;;10.18;5.35;;;;;;;22.39;40.34;100106.00;5112202;28;20143;-72
2021/04/01 11:19:18;;;;;;;11.43;5.18;;;;;;;22.43;40.52;100102.78;5113962;28;20130;-78
2021/04/01 11:21:45;;;;;;;8.80;4.80;;;;;;;22.22;40.46;100092.44;5113621;28;20034;-77
2021/04/01 11:24:11;;;;;;;11.90;5.53;;;;;;;22.35;40.90;100091.91;5115033;28;20452;-74
2021/04/01 11:26:38;;;;;;;11.00;4.95;;;;;;;22.25;39.91;100054.06;5114880;28;20059;-75
2021/04/01 11:29:11;;;;;;;7.30;4.40;;;;;;;22.58;40.27;100092.03;5095466;28;20387;-76
2021/04/01 11:31:37;;;;;;;8.52;4.85;;;;;;;22.56;39.40;100058.75;5113190;28;20031;-76
2021/04/01 11:34:04;;;;;;;9.93;4.53;;;;;;;22.76;39.46;100083.66;5113260;28;20031;-76
2021/04/01 11:36:37;;;;;;;10.10;4.60;;;;;;;22.89;39.10;100081.28;5113460;28;20036;-77
2021/04/01 11:39:11;;;;;;;;;;;;;;;22.85;39.25;100074.50;5112368;28;20435;-77
2021/04/01 11:41:46;;;;;;;9.65;4.78;;;;;;;22.78;39.14;100046.28;5112080;28;19922;-78
2021/04/01 11:44:11;;;;;;;7.43;4.32;;;;;;;22.87;39.34;100058.00;5112870;28;20079;-77
2021/04/01 11:46:41;;;;;;;10.68;4.78;;;;;;;22.91;39.29;100052.03;5112857;28;20151;-77
2021/04/01 11:49:07;;;;;;;11.90;4.95;;;;;;;22.93;38.50;100033.66;5095553;28;20044;-73
2021/04/01 11:51:34;;;;;;;9.00;4.65;;;;;;;22.94;38.84;100035.34;5113191;28;20118;-75
2021/04/01 11:54:01;;;;;;;9.15;4.22;;;;;;;23.02;38.61;100043.47;5111377;28;20386;-74
2021/04/01 11:56:37;;;;;;;9.20;4.10;;;;;;;22.87;39.03;100034.34;5113149;28;20084;-75
2021/04/01 11:59:10;;;;;;;8.90;4.22;;;;;;;22.93;38.73;100038.25;5111688;28;20024;-74
2021/04/01 12:01:46;;;;;;;8.50;4.15;;;;;;;22.99;38.63;100043.00;5112521;28;20024;-75
2021/04/01 12:04:12;;;;;;;8.35;3.90;;;;;;;23.02;38.53;100039.91;5112810;28;20082;-75
2021/04/01 12:06:39;;;;;;;8.13;3.92;;;;;;;22.94;38.29;100024.47;5111429;28;20067;-74
2021/04/01 12:09:05;;;;;;;7.95;3.78;;;;;;;22.78;38.50;100010.94;5112954;28;20037;-75
2021/04/01 12:11:44;;;;;;;5.80;3.78;;;;;;;22.93;38.34;100028.22;5111457;28;20151;-76
2021/04/01 12:14:13;;;;;;;8.45;3.78;;;;;;;22.85;38.28;100006.50;5112529;28;20454;-75
2021/04/01 12:16:39;;;;;;;8.63;3.80;;;;;;;22.64;38.32;99968.19;5112690;28;20031;-74
2021/04/01 12:19:05;;;;;;;7.20;3.40;;;;;;;22.98;38.16;100014.09;5112229;28;20052;-74
2021/04/01 12:21:31;;;;;;;8.13;3.50;;;;;;;22.92;38.30;100014.81;5112435;28;20070;-73
2021/04/01 12:24:02;;;;;;;10.73;3.30;;;;;;;22.91;38.11;100007.69;5111989;28;20034;-74
2021/04/01 12:26:31;;;;;;;10.13;3.40;;;;;;;22.88;38.88;99999.88;5112938;28;20031;-74
2021/04/01 12:29:02;;;;;;;7.22;3.30;;;;;;;22.98;38.51;100003.22;5111434;28;20027;-76
2021/04/01 12:31:52;;;;;;;9.25;4.18;;;;;;;23.09;38.21;99989.22;5112291;28;20478;-75
2021/04/01 12:34:32;;;;;;;7.95;3.38;;;;;;;23.15;38.09;99999.38;5111159;28;20385;-75
2021/04/01 12:37:03;;;;;;;6.82;3.78;;;;;;;23.23;37.60;99985.72;5111233;28;20539;-74
2021/04/01 12:39:30;;;;;;;7.72;3.85;;;;;;;23.20;37.39;99975.19;5111494;28;20104;-76
2021/04/01 12:41:55;;;;;;;8.88;3.40;;;;;;;23.19;37.94;99978.94;5111423;28;20042;-77
2021/04/01 12:44:42;;;;;;;5.57;3.17;;;;;;;23.30;37.41;99973.09;5112446;28;20334;-76
2021/04/01 12:47:09;;;;;;;8.23;4.10;;;;;;;23.26;37.42;99958.16;5112495;28;20042;-75
2021/04/01 12:49:36;;;;;;;7.60;4.25;;;;;;;23.06;37.51;99927.84;5112565;28;20081;-79
2021/04/01 12:52:06;;;;;;;9.27;3.97;;;;;;;23.18;37.58;99943.78;5112588;28;20485;-76
2021/04/01 12:54:37;;;;;;;8.57;3.55;;;;;;;23.26;37.41;99955.44;5112429;28;20381;-76
2021/04/01 12:57:05;;;;;;;9.07;3.83;;;;;;;23.19;37.51;99929.97;5114552;28;20024;-77
2021/04/01 12:59:38;;;;;;;6.72;3.38;;;;;;;23.30;37.36;99926.84;5116608;28;20382;-76
2021/04/01 13:02:09;;;;;;;7.05;3.58;;;;;;;23.47;37.36;99941.16;5116401;28;20028;-79
2021/04/01 13:04:37;;;;;;;7.07;3.63;;;;;;;23.50;37.17;99926.34;5115132;28;20036;-74
2021/04/01 13:10:00;;;;;;;7.47;3.65;;;;;;;23.43;37.67;99899.84;5116394;27;20039;-75
2021/04/01 13:12:26;;;;;;;7.10;3.50;;;;;;;23.61;37.26;99902.25;5116168;28;20032;-77
2021/04/01 13:14:51;;;;;;;10.48;3.15;;;;;;;23.63;37.01;99899.34;5115255;27;20038;-76
2021/04/01 13:17:18;;;;;;;7.80;3.53;;;;;;;23.36;37.36;99860.81;5115718;28;20065;-76